Flight Track Log - Related Links

Times and Time Zones

All times are in EDT time to prevent confusion due to time zone crossing. See the GGN7281 flight status page for this flight to view local times or setup timezone preferences in your user account.

Time Position Orientation Groundspeed Altitude Reporting Facility
EDT Latitude Longitude Course Direction KTS MPH feet Rate Location/Type
Mon 05:49:09 PM 43.5000 -74.6500 261° West 310 357 25,000  Level Toronto Center
Mon 05:49:46 PM 43.1233 -77.6450 261° West 134 154 1,700 -24,655 Descending Cleveland Center
Mon 05:50:04 PM 43.1269 -77.6306 71° East 139 160 2,400 2,303 Climbing Cleveland Center
Mon 05:51:25 PM 43.1572 -77.6744 313° West 161 185 5,500 2,298 Climbing Cleveland Center
Mon 05:52:25 PM 43.1672 -77.7425 281° West 166 191 7,800 2,200 Climbing Cleveland Center
Mon 05:53:25 PM 43.1794 -77.8072 285° West 172 198 9,900 1,100 Climbing Cleveland Center
Mon 05:54:25 PM 43.1856 -77.8925 276° West 199 229 10,000 50 Climbing Cleveland Center
Mon 05:55:25 PM 43.1897 -77.9892 273° West 231 266 10,000  Level Cleveland Center
Mon 05:56:25 PM 43.1939 -78.0858 273° West 250 288 10,000  Level Cleveland Center
Mon 05:57:25 PM 43.1981 -78.1825 273° West 250 288 10,000  Level Cleveland Center
Mon 05:58:25 PM 43.2022 -78.2764 274° West 250 288 10,000  Level Cleveland Center
Mon 05:59:25 PM 43.2061 -78.3731 273° West 250 288 10,000  Level Cleveland Center
Mon 06:00:25 PM 43.2100 -78.4697 273° West 250 288 10,000  Level Cleveland Center
Mon 06:01:25 PM 43.2222 -78.5806 279° West 268 308 10,000  Level Cleveland Center
Mon 06:02:25 PM 43.2322 -78.6742 278° West 268 308 10,000  Level Cleveland Center
Mon 06:03:25 PM 43.2419 -78.7594 279° West 258 297 10,000  Level Cleveland Center
Mon 06:04:25 PM 43.2517 -78.8558 278° West 253 291 10,000  Level Cleveland Center
Mon 06:05:20 PM 43.2500 -78.9167 268° West 250 288 10,000 -522 Level Toronto Center
Mon 06:06:20 PM 43.2667 -79.0333 281° West 260 299 9,000 -500 Descending Toronto Center
Mon 06:07:20 PM 43.2667 -79.1333 270° West 260 299 9,000  Level Toronto Center
Mon 06:08:20 PM 43.2833 -79.2167 285° West 260 299 9,000  Level Toronto Center
Mon 06:09:20 PM 43.3000 -79.3167 283° West 260 299 9,000  Level Toronto Center
Mon 06:10:20 PM 43.3500 -79.3500 334° Northwest 250 288 9,000  Level Toronto Center
Mon 06:11:20 PM 43.4167 -79.3833 340° North 260 299 9,000 -500 Level Toronto Center
Mon 06:12:20 PM 43.4833 -79.4333 331° Northwest 260 299 8,000 -500 Descending Toronto Center
Mon 06:13:20 PM 43.5500 -79.4667 340° North 260 299 8,000 -500 Level Toronto Center
Mon 06:14:20 PM 43.5667 -79.5333 289° West 260 299 7,000 -1,400 Descending Toronto Center
Mon 06:15:20 PM 43.5333 -79.6167 241° Southwest 230 265 5,200 -1,400 Descending Toronto Center
Mon 06:16:20 PM 43.5333 -79.6500 270° West 210 242 4,200 -850 Descending Toronto Center
Mon 06:17:20 PM 43.5833 -79.7000 324° Northwest 180 207 3,500 -950 Descending Toronto Center
Mon 06:18:20 PM 43.6000 -79.6500 65° Northeast 160 184 2,300 -1,250 Descending Toronto Center
Mon 06:19:20 PM 43.6333 -79.6333 20° North 150 173 1,000 -1,300 Descending Toronto Center

Login

Don't have an account? Register now (free) for customized features, flight alerts, and more!